sensor_id;sensor_type;location;lat;lon;timestamp;pressure;altitude;pressure_sealevel;temperature;humidity
2036;BME280;23642;42.658;23.350;2022-11-15T00:00:44;48708.66;;;-146.31;100.00
2036;BME280;23642;42.658;23.350;2022-11-15T00:03:13;48718.97;;;-146.31;100.00
2036;BME280;23642;42.658;23.350;2022-11-15T00:05:40;48704.53;;;-146.31;100.00
2036;BME280;23642;42.658;23.350;2022-11-15T00:08:07;48731.31;;;-146.31;100.00
2036;BME280;23642;42.658;23.350;2022-11-15T00:10:36;48729.25;;;-146.31;100.00
2036;BME280;23642;42.658;23.350;2022-11-15T00:13:05;48675.66;;;-146.31;100.00
2036;BME280;23642;42.658;23.350;2022-11-15T00:15:34;48671.53;;;-146.31;100.00
2036;BME280;23642;42.658;23.350;2022-11-15T00:18:02;48653.00;;;-146.31;100.00
2036;BME280;23642;42.658;23.350;2022-11-15T00:20:29;48648.88;;;-146.31;100.00
2036;BME280;23642;42.658;23.350;2022-11-15T00:22:56;48622.06;;;-146.31;100.00
2036;BME280;23642;42.658;23.350;2022-11-15T00:25:23;48638.56;;;-146.31;100.00
2036;BME280;23642;42.658;23.350;2022-11-15T00:27:55;48663.31;;;-146.31;100.00
2036;BME280;23642;42.658;23.350;2022-11-15T00:30:22;48653.00;;;-146.31;100.00
2036;BME280;23642;42.658;23.350;2022-11-15T00:32:49;48597.34;;;-146.31;100.00
2036;BME280;23642;42.658;23.350;2022-11-15T00:35:15;48644.75;;;-146.31;100.00
2036;BME280;23642;42.658;23.350;2022-11-15T00:37:42;48644.75;;;-146.31;100.00
2036;BME280;23642;42.658;23.350;2022-11-15T00:40:10;48609.72;;;-146.31;100.00
2036;BME280;23642;42.658;23.350;2022-11-15T00:42:38;48620.00;;;-146.31;100.00
2036;BME280;23642;42.658;23.350;2022-11-15T00:45:07;48617.94;;;-146.31;100.00
2036;BME280;23642;42.658;23.350;2022-11-15T00:47:34;48605.59;;;-146.31;100.00
2036;BME280;23642;42.658;23.350;2022-11-15T00:50:04;48597.34;;;-146.31;100.00
2036;BME280;23642;42.658;23.350;2022-11-15T00:52:31;48613.81;;;-146.31;100.00
2036;BME280;23642;42.658;23.350;2022-11-15T00:54:58;48607.66;;;-146.31;100.00
2036;BME280;23642;42.658;23.350;2022-11-15T00:57:25;48593.22;;;-146.31;100.00
2036;BME280;23642;42.658;23.350;2022-11-15T00:59:51;48611.78;;;-146.31;100.00
2036;BME280;23642;42.658;23.350;2022-11-15T01:02:20;48609.72;;;-146.31;100.00
2036;BME280;23642;42.658;23.350;2022-11-15T01:04:47;48628.25;;;-146.31;100.00
2036;BME280;23642;42.658;23.350;2022-11-15T01:07:14;48591.16;;;-146.31;100.00
2036;BME280;23642;42.658;23.350;2022-11-15T01:09:41;48624.13;;;-146.31;100.00
2036;BME280;23642;42.658;23.350;2022-11-15T01:12:07;48593.22;;;-146.31;100.00
2036;BME280;23642;42.658;23.350;2022-11-15T01:14:34;48613.81;;;-146.31;100.00
2036;BME280;23642;42.658;23.350;2022-11-15T01:17:04;48609.72;;;-146.31;100.00
2036;BME280;23642;42.658;23.350;2022-11-15T01:19:32;48655.06;;;-146.31;100.00
2036;BME280;23642;42.658;23.350;2022-11-15T01:22:00;48613.81;;;-146.31;100.00
2036;BME280;23642;42.658;23.350;2022-11-15T01:24:27;48605.59;;;-146.31;100.00
2036;BME280;23642;42.658;23.350;2022-11-15T01:26:54;48587.03;;;-146.31;100.00
2036;BME280;23642;42.658;23.350;2022-11-15T01:29:20;48574.66;;;-146.31;100.00
2036;BME280;23642;42.658;23.350;2022-11-15T01:31:47;48595.28;;;-146.31;100.00
2036;BME280;23642;42.658;23.350;2022-11-15T01:34:14;48584.97;;;-146.31;100.00
2036;BME280;23642;42.658;23.350;2022-11-15T01:36:43;48589.09;;;-146.31;100.00
2036;BME280;23642;42.658;23.350;2022-11-15T01:39:10;48527.25;;;-146.31;100.00
2036;BME280;23642;42.658;23.350;2022-11-15T01:41:36;48580.84;;;-146.31;100.00
2036;BME280;23642;42.658;23.350;2022-11-15T01:44:38;48533.44;;;-146.31;100.00
2036;BME280;23642;42.658;23.350;2022-11-15T01:47:08;48576.72;;;-146.31;100.00
2036;BME280;23642;42.658;23.350;2022-11-15T01:49:40;48531.38;;;-146.31;100.00
2036;BME280;23642;42.658;23.350;2022-11-15T01:52:12;48560.25;;;-146.31;100.00
2036;BME280;23642;42.658;23.350;2022-11-15T01:54:42;48533.44;;;-146.31;100.00
2036;BME280;23642;42.658;23.350;2022-11-15T01:57:12;48556.13;;;-146.31;100.00
2036;BME280;23642;42.658;23.350;2022-11-15T01:59:42;48552.00;;;-146.31;100.00
2036;BME280;23642;42.658;23.350;2022-11-15T02:02:13;48574.66;;;-146.31;100.00
2036;BME280;23642;42.658;23.350;2022-11-15T02:04:42;48523.13;;;-146.31;100.00
2036;BME280;23642;42.658;23.350;2022-11-15T02:07:13;48496.34;;;-146.31;100.00
2036;BME280;23642;42.658;23.350;2022-11-15T02:09:42;48537.56;;;-146.31;100.00
2036;BME280;23642;42.658;23.350;2022-11-15T02:12:10;48525.19;;;-146.31;100.00
2036;BME280;23642;42.658;23.350;2022-11-15T02:14:42;48498.41;;;-146.31;100.00
2036;BME280;23642;42.658;23.350;2022-11-15T02:17:28;48516.94;;;-146.31;100.00
2036;BME280;23642;42.658;23.350;2022-11-15T02:20:14;48523.13;;;-146.31;100.00
2036;BME280;23642;42.658;23.350;2022-11-15T02:23:03;48543.75;;;-146.31;100.00
2036;BME280;23642;42.658;23.350;2022-11-15T02:25:44;48531.38;;;-146.31;100.00
2036;BME280;23642;42.658;23.350;2022-11-15T02:28:43;48545.81;;;-146.31;100.00
2036;BME280;23642;42.658;23.350;2022-11-15T02:31:18;48541.69;;;-146.31;100.00
2036;BME280;23642;42.658;23.350;2022-11-15T02:33:56;48516.94;;;-146.31;100.00
2036;BME280;23642;42.658;23.350;2022-11-15T02:36:34;48502.53;;;-146.31;100.00
2036;BME280;23642;42.658;23.350;2022-11-15T02:39:07;48508.72;;;-146.31;100.00
2036;BME280;23642;42.658;23.350;2022-11-15T02:41:45;48510.78;;;-146.31;100.00
2036;BME280;23642;42.658;23.350;2022-11-15T02:44:18;48488.09;;;-146.31;100.00
2036;BME280;23642;42.658;23.350;2022-11-15T02:46:51;48477.78;;;-146.31;100.00
2036;BME280;23642;42.658;23.350;2022-11-15T02:49:38;48467.47;;;-146.31;100.00
2036;BME280;23642;42.658;23.350;2022-11-15T02:52:06;48457.19;;;-146.31;100.00
2036;BME280;23642;42.658;23.350;2022-11-15T02:54:34;48448.94;;;-146.31;100.00
2036;BME280;23642;42.658;23.350;2022-11-15T02:57:04;48453.06;;;-146.31;100.00
2036;BME280;23642;42.658;23.350;2022-11-15T03:02:56;48415.94;;;-146.31;100.00
2036;BME280;23642;42.658;23.350;2022-11-15T03:05:30;48411.84;;;-146.31;100.00
2036;BME280;23642;42.658;23.350;2022-11-15T03:08:08;48395.34;;;-146.31;100.00
2036;BME280;23642;42.658;23.350;2022-11-15T03:10:42;48380.91;;;-146.31;100.00
2036;BME280;23642;42.658;23.350;2022-11-15T03:13:21;48378.84;;;-146.31;100.00
2036;BME280;23642;42.658;23.350;2022-11-15T03:15:57;48378.84;;;-146.31;100.00
2036;BME280;23642;42.658;23.350;2022-11-15T03:18:32;48368.53;;;-146.31;100.00
2036;BME280;23642;42.658;23.350;2022-11-15T03:21:05;48358.25;;;-146.31;100.00
2036;BME280;23642;42.658;23.350;2022-11-15T03:23:34;48345.88;;;-146.31;100.00
2036;BME280;23642;42.658;23.350;2022-11-15T03:26:07;48387.09;;;-146.31;100.00
2036;BME280;23642;42.658;23.350;2022-11-15T03:28:38;48333.50;;;-146.31;100.00
2036;BME280;23642;42.658;23.350;2022-11-15T03:31:05;48372.66;;;-146.31;100.00
2036;BME280;23642;42.658;23.350;2022-11-15T03:33:48;48356.19;;;-146.31;100.00
2036;BME280;23642;42.658;23.350;2022-11-15T03:36:17;48354.13;;;-146.31;100.00
2036;BME280;23642;42.658;23.350;2022-11-15T03:38:44;48385.03;;;-146.31;100.00
2036;BME280;23642;42.658;23.350;2022-11-15T03:41:19;48380.91;;;-146.31;100.00
2036;BME280;23642;42.658;23.350;2022-11-15T03:43:52;48382.97;;;-146.31;100.00
2036;BME280;23642;42.658;23.350;2022-11-15T03:46:26;48378.84;;;-146.31;100.00
2036;BME280;23642;42.658;23.350;2022-11-15T03:49:00;48378.84;;;-146.31;100.00
2036;BME280;23642;42.658;23.350;2022-11-15T03:51:29;48378.84;;;-146.31;100.00
2036;BME280;23642;42.658;23.350;2022-11-15T03:53:58;48399.47;;;-146.31;100.00
2036;BME280;23642;42.658;23.350;2022-11-15T03:56:25;48382.97;;;-146.31;100.00
2036;BME280;23642;42.658;23.350;2022-11-15T03:58:52;48399.47;;;-146.31;100.00
2036;BME280;23642;42.658;23.350;2022-11-15T04:01:19;48385.03;;;-146.31;100.00
2036;BME280;23642;42.658;23.350;2022-11-15T04:03:45;48430.38;;;-146.31;100.00
2036;BME280;23642;42.658;23.350;2022-11-15T04:06:14;48432.44;;;-146.31;100.00
2036;BME280;23642;42.658;23.350;2022-11-15T04:08:42;48564.34;;;-146.31;100.00
2036;BME280;23642;42.658;23.350;2022-11-15T04:11:16;48584.97;;;-146.31;100.00
2036;BME280;23642;42.658;23.350;2022-11-15T04:13:43;48617.94;;;-146.31;100.00
2036;BME280;23642;42.658;23.350;2022-11-15T04:16:10;48673.59;;;-146.31;100.00
2036;BME280;23642;42.658;23.350;2022-11-15T04:18:37;48622.06;;;-146.31;100.00
2036;BME280;23642;42.658;23.350;2022-11-15T04:21:04;48626.19;;;-146.31;100.00
2036;BME280;23642;42.658;23.350;2022-11-15T04:23:50;48723.06;;;-146.31;100.00
2036;BME280;23642;42.658;23.350;2022-11-15T04:26:35;48832.34;;;-146.31;100.00
2036;BME280;23642;42.658;23.350;2022-11-15T04:29:04;48945.72;;;-146.31;100.00
2036;BME280;23642;42.658;23.350;2022-11-15T04:31:48;48966.31;;;-146.31;100.00
2036;BME280;23642;42.658;23.350;2022-11-15T04:34:15;48999.31;;;-146.31;100.00
2036;BME280;23642;42.658;23.350;2022-11-15T04:36:42;49034.34;;;-146.31;100.00
2036;BME280;23642;42.658;23.350;2022-11-15T04:39:28;49059.09;;;-146.31;100.00
2036;BME280;23642;42.658;23.350;2022-11-15T04:41:54;49067.34;;;-146.31;100.00
2036;BME280;23642;42.658;23.350;2022-11-15T04:44:21;49151.88;;;-146.31;100.00
2036;BME280;23642;42.658;23.350;2022-11-15T04:46:48;49226.09;;;-146.31;100.00
2036;BME280;23642;42.658;23.350;2022-11-15T04:49:15;49219.91;;;-146.31;100.00
2036;BME280;23642;42.658;23.350;2022-11-15T04:51:42;49209.59;;;-146.31;100.00
2036;BME280;23642;42.658;23.350;2022-11-15T04:54:09;49186.91;;;-146.31;100.00
2036;BME280;23642;42.658;23.350;2022-11-15T04:56:37;49164.25;;;-146.31;100.00
2036;BME280;23642;42.658;23.350;2022-11-15T04:59:04;49114.75;;;-146.31;100.00
2036;BME280;23642;42.658;23.350;2022-11-15T05:01:31;49085.91;;;-146.31;100.00
2036;BME280;23642;42.658;23.350;2022-11-15T05:03:58;49063.22;;;-146.31;100.00
2036;BME280;23642;42.658;23.350;2022-11-15T05:06:42;49032.28;;;-146.31;100.00
2036;BME280;23642;42.658;23.350;2022-11-15T05:09:09;48989.00;;;-146.31;100.00
2036;BME280;23642;42.658;23.350;2022-11-15T05:11:37;49015.81;;;-146.31;100.00
2036;BME280;23642;42.658;23.350;2022-11-15T05:14:03;48997.25;;;-146.31;100.00
2036;BME280;23642;42.658;23.350;2022-11-15T05:16:34;48978.69;;;-146.31;100.00
2036;BME280;23642;42.658;23.350;2022-11-15T05:19:01;48939.53;;;-146.31;100.00
2036;BME280;23642;42.658;23.350;2022-11-15T05:21:28;48910.66;;;-146.31;100.00
2036;BME280;23642;42.658;23.350;2022-11-15T05:23:55;48885.94;;;-146.31;100.00
2036;BME280;23642;42.658;23.350;2022-11-15T05:26:24;48867.38;;;-146.31;100.00
2036;BME280;23642;42.658;23.350;2022-11-15T05:28:56;48852.94;;;-146.31;100.00
2036;BME280;23642;42.658;23.350;2022-11-15T05:31:24;48867.38;;;-146.31;100.00
2036;BME280;23642;42.658;23.350;2022-11-15T05:33:52;48861.19;;;-146.31;100.00
2036;BME280;23642;42.658;23.350;2022-11-15T05:36:25;48877.69;;;-146.31;100.00
2036;BME280;23642;42.658;23.350;2022-11-15T05:38:53;48888.00;;;-146.31;100.00
2036;BME280;23642;42.658;23.350;2022-11-15T05:41:24;48877.69;;;-146.31;100.00
2036;BME280;23642;42.658;23.350;2022-11-15T05:43:55;48877.69;;;-146.31;100.00
2036;BME280;23642;42.658;23.350;2022-11-15T05:46:31;48906.53;;;-146.31;100.00
2036;BME280;23642;42.658;23.350;2022-11-15T05:49:01;48848.81;;;-146.31;100.00
2036;BME280;23642;42.658;23.350;2022-11-15T05:51:29;48830.28;;;-146.31;100.00
2036;BME280;23642;42.658;23.350;2022-11-15T05:53:57;48859.13;;;-146.31;100.00
2036;BME280;23642;42.658;23.350;2022-11-15T05:56:25;48855.00;;;-146.31;100.00
2036;BME280;23642;42.658;23.350;2022-11-15T05:58:59;48850.88;;;-146.31;100.00
2036;BME280;23642;42.658;23.350;2022-11-15T06:08:04;48906.53;;;-146.31;100.00
2036;BME280;23642;42.658;23.350;2022-11-15T06:10:45;48914.78;;;-146.31;100.00
2036;BME280;23642;42.658;23.350;2022-11-15T06:13:12;48931.28;;;-146.31;100.00
2036;BME280;23642;42.658;23.350;2022-11-15T06:26:32;49331.22;;;-146.31;100.00
2036;BME280;23642;42.658;23.350;2022-11-15T06:29:02;49374.53;;;-146.31;100.00
2036;BME280;23642;42.658;23.350;2022-11-15T06:31:32;49374.53;;;-146.31;100.00
2036;BME280;23642;42.658;23.350;2022-11-15T06:33:59;49335.34;;;-146.31;100.00
2036;BME280;23642;42.658;23.350;2022-11-15T06:36:26;49335.34;;;-146.31;100.00
2036;BME280;23642;42.658;23.350;2022-11-15T06:38:53;49329.16;;;-146.31;100.00
2036;BME280;23642;42.658;23.350;2022-11-15T06:41:20;49376.59;;;-146.31;100.00
2036;BME280;23642;42.658;23.350;2022-11-15T06:43:48;49457.00;;;-146.31;100.00
2036;BME280;23642;42.658;23.350;2022-11-15T06:46:15;49553.91;;;-146.31;100.00
2036;BME280;23642;42.658;23.350;2022-11-15T06:48:42;49636.38;;;-146.31;99.52
2036;BME280;23642;42.658;23.350;2022-11-15T06:51:09;49683.81;;;-146.31;99.03
2036;BME280;23642;42.658;23.350;2022-11-15T06:53:36;49766.28;;;-146.31;98.60
2036;BME280;23642;42.658;23.350;2022-11-15T06:56:07;49848.75;;;-146.31;97.96
2036;BME280;23642;42.658;23.350;2022-11-15T06:58:36;49867.31;;;-146.31;97.76
2036;BME280;23642;42.658;23.350;2022-11-15T07:01:06;50069.41;;;-146.31;96.16
2036;BME280;23642;42.658;23.350;2022-11-15T07:03:34;50127.16;;;-146.31;95.99
2036;BME280;23642;42.658;23.350;2022-11-15T07:06:01;50219.94;;;-146.31;95.83
2036;BME280;23642;42.658;23.350;2022-11-15T07:08:29;50238.50;;;-146.31;96.04
2036;BME280;23642;42.658;23.350;2022-11-15T07:10:58;50250.88;;;-146.31;96.63
2036;BME280;23642;42.658;23.350;2022-11-15T07:13:26;50234.38;;;-146.31;96.61
2036;BME280;23642;42.658;23.350;2022-11-15T07:15:53;50201.38;;;-146.31;96.60
2036;BME280;23642;42.658;23.350;2022-11-15T07:18:22;50250.88;;;-146.31;95.14
2036;BME280;23642;42.658;23.350;2022-11-15T07:20:49;50372.56;;;-146.31;94.52
2036;BME280;23642;42.658;23.350;2022-11-15T07:23:16;50378.75;;;-146.31;94.56
2036;BME280;23642;42.658;23.350;2022-11-15T07:25:49;50436.50;;;-146.31;94.34
2036;BME280;23642;42.658;23.350;2022-11-15T07:28:25;50420.00;;;-146.31;94.82
2036;BME280;23642;42.658;23.350;2022-11-15T07:30:52;50488.06;;;-146.31;93.28
2036;BME280;23642;42.658;23.350;2022-11-15T07:33:22;50552.00;;;-146.31;93.28
2036;BME280;23642;42.658;23.350;2022-11-15T07:35:49;50568.50;;;-146.31;93.03
2036;BME280;23642;42.658;23.350;2022-11-15T07:38:17;50580.88;;;-146.31;93.29
2036;BME280;23642;42.658;23.350;2022-11-15T07:40:46;50624.19;;;-146.31;92.51
2036;BME280;23642;42.658;23.350;2022-11-15T07:43:16;50679.88;;;-146.31;92.35
2036;BME280;23642;42.658;23.350;2022-11-15T07:45:46;50692.25;;;-146.31;92.39
2036;BME280;23642;42.658;23.350;2022-11-15T07:48:13;50692.25;;;-146.31;91.47
2036;BME280;23642;42.658;23.350;2022-11-15T07:50:42;50733.50;;;-146.31;90.99
2036;BME280;23642;42.658;23.350;2022-11-15T07:53:10;50828.38;;;-146.31;91.31
2036;BME280;23642;42.658;23.350;2022-11-15T07:55:41;50820.13;;;-146.31;91.38
2036;BME280;23642;42.658;23.350;2022-11-15T07:58:09;50816.00;;;-146.31;91.45
2036;BME280;23642;42.658;23.350;2022-11-15T08:01:01;50822.19;;;-146.31;92.05
2036;BME280;23642;42.658;23.350;2022-11-15T08:03:39;50799.50;;;-146.31;92.76
2036;BME280;23642;42.658;23.350;2022-11-15T08:10:02;50766.50;;;-146.31;92.79
2036;BME280;23642;42.658;23.350;2022-11-15T08:12:47;50735.56;;;-146.31;93.55
2036;BME280;23642;42.658;23.350;2022-11-15T08:15:15;50739.69;;;-146.31;93.78
2036;BME280;23642;42.658;23.350;2022-11-15T08:17:44;50727.31;;;-146.31;93.57
2036;BME280;23642;42.658;23.350;2022-11-15T08:20:11;50770.63;;;-146.31;92.99
2036;BME280;23642;42.658;23.350;2022-11-15T08:22:38;50793.31;;;-146.31;92.71
2036;BME280;23642;42.658;23.350;2022-11-15T08:25:07;50743.81;;;-146.31;93.44
2036;BME280;23642;42.658;23.350;2022-11-15T08:27:40;50758.25;;;-146.31;92.91
2036;BME280;23642;42.658;23.350;2022-11-15T08:30:08;50816.00;;;-146.31;91.89
2036;BME280;23642;42.658;23.350;2022-11-15T08:32:35;50844.88;;;-146.31;93.05
2036;BME280;23642;42.658;23.350;2022-11-15T08:35:08;50813.94;;;-146.31;94.39
2036;BME280;23642;42.658;23.350;2022-11-15T08:37:37;50774.75;;;-146.31;94.45
2036;BME280;23642;42.658;23.350;2022-11-15T08:40:43;50789.19;;;-146.31;94.19
2036;BME280;23642;42.658;23.350;2022-11-15T08:43:11;50783.00;;;-146.31;94.25
2036;BME280;23642;42.658;23.350;2022-11-15T08:45:40;50778.88;;;-146.31;93.80
2036;BME280;23642;42.658;23.350;2022-11-15T08:48:07;50809.81;;;-146.31;93.29
2036;BME280;23642;42.658;23.350;2022-11-15T08:50:39;50832.50;;;-146.31;92.30
2036;BME280;23642;42.658;23.350;2022-11-15T08:53:07;50857.25;;;-146.31;91.65
2036;BME280;23642;42.658;23.350;2022-11-15T08:55:36;50844.88;;;-146.31;90.64
2036;BME280;23642;42.658;23.350;2022-11-15T08:58:07;50925.31;;;-146.31;89.74
2036;BME280;23642;42.658;23.350;2022-11-15T09:00:34;50960.38;;;-146.31;89.54
2036;BME280;23642;42.658;23.350;2022-11-15T09:03:03;50943.88;;;-146.31;90.40
2036;BME280;23642;42.658;23.350;2022-11-15T09:05:36;50972.75;;;-146.31;88.77
2036;BME280;23642;42.658;23.350;2022-11-15T09:08:05;51028.44;;;-146.31;87.79
2036;BME280;23642;42.658;23.350;2022-11-15T09:10:32;51038.75;;;-146.31;89.17
2036;BME280;23642;42.658;23.350;2022-11-15T09:13:00;51051.13;;;-146.31;89.62
2036;BME280;23642;42.658;23.350;2022-11-15T09:15:38;51063.50;;;-146.31;88.36
2036;BME280;23642;42.658;23.350;2022-11-15T09:18:05;51102.72;;;-146.31;88.17
2036;BME280;23642;42.658;23.350;2022-11-15T09:20:32;51075.88;;;-146.31;87.68
2036;BME280;23642;42.658;23.350;2022-11-15T09:23:38;51104.78;;;-146.31;87.11
2036;BME280;23642;42.658;23.350;2022-11-15T09:26:18;51158.41;;;-146.31;86.52
2036;BME280;23642;42.658;23.350;2022-11-15T09:28:45;51207.91;;;-146.31;85.52
2036;BME280;23642;42.658;23.350;2022-11-15T09:31:14;51205.84;;;-146.31;86.20
2036;BME280;23642;42.658;23.350;2022-11-15T09:33:43;51209.97;;;-146.31;85.52
2036;BME280;23642;42.658;23.350;2022-11-15T09:36:12;51302.81;;;-146.31;84.02
2036;BME280;23642;42.658;23.350;2022-11-15T09:38:39;51311.06;;;-146.31;83.50
2036;BME280;23642;42.658;23.350;2022-11-15T09:41:25;51323.44;;;-146.31;82.94
2036;BME280;23642;42.658;23.350;2022-11-15T09:44:11;51401.81;;;-146.31;82.65
2036;BME280;23642;42.658;23.350;2022-11-15T09:50:33;51455.47;;;-146.31;83.69
2036;BME280;23642;42.658;23.350;2022-11-15T09:53:24;51476.09;;;-146.31;81.99
2036;BME280;23642;42.658;23.350;2022-11-15T09:59:55;51513.22;;;-146.31;82.31
2036;BME280;23642;42.658;23.350;2022-11-15T10:29:27;51500.84;;;-146.31;87.36
2036;BME280;23642;42.658;23.350;2022-11-15T10:31:56;51463.72;;;-146.31;87.62
2036;BME280;23642;42.658;23.350;2022-11-15T10:34:23;51463.72;;;-146.31;87.16
2036;BME280;23642;42.658;23.350;2022-11-15T10:36:56;51445.16;;;-146.31;87.40
2036;BME280;23642;42.658;23.350;2022-11-15T10:39:53;51465.78;;;-146.31;86.72
2036;BME280;23642;42.658;23.350;2022-11-15T11:59:51;51519.41;;;-146.31;84.24
2036;BME280;23642;42.658;23.350;2022-11-15T12:02:24;51544.19;;;-146.31;84.54
2036;BME280;23642;42.658;23.350;2022-11-15T12:05:01;51533.84;;;-146.31;85.06
2036;BME280;23642;42.658;23.350;2022-11-15T12:07:32;51546.25;;;-146.31;85.56
2036;BME280;23642;42.658;23.350;2022-11-15T12:10:12;51548.31;;;-146.31;85.15
2036;BME280;23642;42.658;23.350;2022-11-15T12:12:54;51548.31;;;-146.31;85.12
2036;BME280;23642;42.658;23.350;2022-11-15T12:15:26;51560.69;;;-146.31;84.77
2036;BME280;23642;42.658;23.350;2022-11-15T12:22:00;51566.88;;;-146.31;84.29
2036;BME280;23642;42.658;23.350;2022-11-15T12:24:53;51573.06;;;-146.31;83.89
2036;BME280;23642;42.658;23.350;2022-11-15T14:14:21;51630.81;;;-146.31;85.84
2036;BME280;23642;42.658;23.350;2022-11-15T14:17:32;51661.78;;;-146.31;86.40
2036;BME280;23642;42.658;23.350;2022-11-15T14:26:51;51614.31;;;-146.31;85.15
2036;BME280;23642;42.658;23.350;2022-11-15T14:36:32;51659.72;;;-146.31;86.27
2036;BME280;23642;42.658;23.350;2022-11-15T14:39:01;51634.94;;;-146.31;87.00
2036;BME280;23642;42.658;23.350;2022-11-15T14:41:35;51649.41;;;-146.31;86.59
2036;BME280;23642;42.658;23.350;2022-11-15T14:57:42;51620.50;;;-146.31;91.81
2036;BME280;23642;42.658;23.350;2022-11-15T15:00:11;51601.94;;;-146.31;92.38
2036;BME280;23642;42.658;23.350;2022-11-15T15:06:28;51601.94;;;-146.31;92.26
2036;BME280;23642;42.658;23.350;2022-11-15T15:09:13;51587.50;;;-146.31;93.08
2036;BME280;23642;42.658;23.350;2022-11-15T15:11:41;51564.81;;;-146.31;93.56
2036;BME280;23642;42.658;23.350;2022-11-15T15:14:14;51548.31;;;-146.31;93.82
2036;BME280;23642;42.658;23.350;2022-11-15T15:16:43;51573.06;;;-146.31;94.52
2036;BME280;23642;42.658;23.350;2022-11-15T15:19:14;51538.00;;;-146.31;94.92
2036;BME280;23642;42.658;23.350;2022-11-15T15:21:46;51478.16;;;-146.31;95.57
2036;BME280;23642;42.658;23.350;2022-11-15T15:24:14;51469.91;;;-146.31;95.74
2036;BME280;23642;42.658;23.350;2022-11-15T15:26:49;51467.84;;;-146.31;95.82
2036;BME280;23642;42.658;23.350;2022-11-15T15:29:18;51447.22;;;-146.31;95.99
2036;BME280;23642;42.658;23.350;2022-11-15T15:31:46;51463.72;;;-146.31;96.40
2036;BME280;23642;42.658;23.350;2022-11-15T15:34:13;51441.03;;;-146.31;96.94
2036;BME280;23642;42.658;23.350;2022-11-15T15:37:08;51397.69;;;-146.31;97.16
2036;BME280;23642;42.658;23.350;2022-11-15T15:39:44;51385.31;;;-146.31;97.50
2036;BME280;23642;42.658;23.350;2022-11-15T15:42:11;51356.44;;;-146.31;97.76
2036;BME280;23642;42.658;23.350;2022-11-15T15:48:13;51315.19;;;-146.31;98.16
2036;BME280;23642;42.658;23.350;2022-11-15T15:50:42;51306.94;;;-146.31;98.33
2036;BME280;23642;42.658;23.350;2022-11-15T15:53:11;51267.75;;;-146.31;98.26
2036;BME280;23642;42.658;23.350;2022-11-15T15:55:42;51257.41;;;-146.31;98.74
2036;BME280;23642;42.658;23.350;2022-11-15T15:58:09;51242.97;;;-146.31;98.63
2036;BME280;23642;42.658;23.350;2022-11-15T16:00:36;51216.16;;;-146.31;99.01
2036;BME280;23642;42.658;23.350;2022-11-15T16:03:04;51212.03;;;-146.31;99.16
2036;BME280;23642;42.658;23.350;2022-11-15T16:05:32;51174.91;;;-146.31;99.29
2036;BME280;23642;42.658;23.350;2022-11-15T16:08:01;51143.97;;;-146.31;99.38
2036;BME280;23642;42.658;23.350;2022-11-15T16:10:33;51129.53;;;-146.31;99.55
2036;BME280;23642;42.658;23.350;2022-11-15T16:13:02;51121.28;;;-146.31;99.43
2036;BME280;23642;42.658;23.350;2022-11-15T16:15:32;51075.88;;;-146.31;99.79
2036;BME280;23642;42.658;23.350;2022-11-15T16:18:00;50978.94;;;-146.31;99.56
2036;BME280;23642;42.658;23.350;2022-11-15T16:20:35;51022.25;;;-146.31;98.30
2036;BME280;23642;42.658;23.350;2022-11-15T16:23:03;51038.75;;;-146.31;97.51
2036;BME280;23642;42.658;23.350;2022-11-15T16:25:32;51110.97;;;-146.31;97.67
2036;BME280;23642;42.658;23.350;2022-11-15T16:28:01;51100.66;;;-146.31;97.45
2036;BME280;23642;42.658;23.350;2022-11-15T16:30:29;51115.09;;;-146.31;97.12
2036;BME280;23642;42.658;23.350;2022-11-15T16:33:01;51129.53;;;-146.31;96.29
2036;BME280;23642;42.658;23.350;2022-11-15T16:35:34;51158.41;;;-146.31;96.51
2036;BME280;23642;42.658;23.350;2022-11-15T16:38:01;51156.34;;;-146.31;97.01
2036;BME280;23642;42.658;23.350;2022-11-15T16:40:30;51160.47;;;-146.31;97.71
2036;BME280;23642;42.658;23.350;2022-11-15T16:42:58;51133.66;;;-146.31;98.04
2036;BME280;23642;42.658;23.350;2022-11-15T16:45:27;51055.25;;;-146.31;98.81
2036;BME280;23642;42.658;23.350;2022-11-15T16:47:56;51051.13;;;-146.31;98.86
2036;BME280;23642;42.658;23.350;2022-11-15T16:50:25;51061.44;;;-146.31;99.14
2036;BME280;23642;42.658;23.350;2022-11-15T16:52:55;51065.56;;;-146.31;99.39
2036;BME280;23642;42.658;23.350;2022-11-15T16:55:24;51030.50;;;-146.31;99.52
2036;BME280;23642;42.658;23.350;2022-11-15T16:57:53;50989.25;;;-146.31;100.00
2036;BME280;23642;42.658;23.350;2022-11-15T17:00:22;50910.88;;;-146.31;100.00
2036;BME280;23642;42.658;23.350;2022-11-15T17:02:50;50879.94;;;-146.31;100.00
2036;BME280;23642;42.658;23.350;2022-11-15T17:05:19;50832.50;;;-146.31;100.00
2036;BME280;23642;42.658;23.350;2022-11-15T17:08:17;50780.94;;;-146.31;100.00
2036;BME280;23642;42.658;23.350;2022-11-15T17:14:11;50640.69;;;-146.31;100.00
2036;BME280;23642;42.658;23.350;2022-11-15T17:16:39;50589.13;;;-146.31;100.00
2036;BME280;23642;42.658;23.350;2022-11-15T17:19:12;50519.00;;;-146.31;100.00
2036;BME280;23642;42.658;23.350;2022-11-15T17:21:40;50436.50;;;-146.31;100.00
2036;BME280;23642;42.658;23.350;2022-11-15T17:24:09;50356.06;;;-146.31;100.00
2036;BME280;23642;42.658;23.350;2022-11-15T17:26:36;50308.63;;;-146.31;100.00
2036;BME280;23642;42.658;23.350;2022-11-15T17:29:04;50236.44;;;-146.31;100.00
2036;BME280;23642;42.658;23.350;2022-11-15T17:31:32;50205.50;;;-146.31;100.00
2036;BME280;23642;42.658;23.350;2022-11-15T17:34:00;50118.91;;;-146.31;100.00
2036;BME280;23642;42.658;23.350;2022-11-15T17:36:27;50069.41;;;-146.31;100.00
2036;BME280;23642;42.658;23.350;2022-11-15T17:46:14;49826.06;;;-146.31;100.00
2036;BME280;23642;42.658;23.350;2022-11-15T17:49:16;49735.34;;;-146.31;100.00